Fordville, North Dakota
Current Conditions -  °F | °C
As of 6:58 PM on Monday 26 Jan 2015 (Local Time) from KRDR Reporting Station
Overcast Overcast  
Wind Chill: 28°   Ceiling: 12000
Heat Index: 28°   Visibility: 10mi
Dew Point: 25°   Wind: 3mph
Humidity: 88%   Direction: 60°ENE
Pressure: 29.99"   Gusts: NA
Location:  48.22°N, 97.79°W
Report Text: KRDR 270058Z AUTO 06003KT 10SM OVC120 M02/M04 A2999 RMK AO2 SLP172 T10221039
Loading
Personal Weather Stations






























Interactive Weather Map New forecast layout! Learn more

10-Day Weather Forecast

Advertisements
Track Severe Weather on mobile